Carmacks, Canada
Current Conditions -  °F | °C
As of 10:00 AM on Friday 28 Nov 2014 (Local Time) from CYDB Reporting Station
Ice Pellets Ice Pellets  
Wind Chill: -38°   Ceiling: Unl
Heat Index: -24°   Visibility: 30mi
Dew Point: -29°   Wind: 5mph
Humidity: 76%   Direction: 300°WNW
Pressure: 30.06"   Gusts: NA
Location:  62.1°N, 136.32°W
Report Text: CYDB 281800Z 30004KT 30SM IC FEW006 FEW100 SCT180 M31/M34 A3006 RMK SF1AC1AC1 SLP294
Loading
Personal Weather Stations






























Interactive Weather Map New forecast layout! Learn more

10-Day Weather Forecast

Advertisements
Track Severe Weather on mobile